• Join FlightAware (Why Join?)
  • Login
  • US Flag 
12:14PM EDT


 

Airport Tracker/Info


-or-


 

Live Flight TrackerFlight Track Log ✈ N560HM ✈ 25-Mar-2014 ✈ KAGC - KTPA

Flight Track Log - Related Links

Times and Time Zones

All times are in EDT time to prevent confusion due to time zone crossing. See the N560HM flight status page for this flight to view local times or setup timezone preferences in your user account.

Time Position Orientation Groundspeed Altitude Reporting Facility
EDT Latitude Longitude Course Direction KTS MPH feet Rate Location/Type
12:15PM 40.3486 -79.9708 194° South 241 277 2,400  Level Cleveland Center
12:16PM 40.2786 -80.0153 206° Southwest 234 269 6,000 3,600 Climbing Cleveland Center
12:17PM 40.2039 -80.0331 190° South 261 300 9,800 3,780 Climbing Cleveland Center
12:18PM 40.1203 -80.0511 189° South 289 333 13,800 3,780 Climbing Cleveland Center
12:19PM 40.0442 -80.0708 191° South 290 334 17,600 3,300 Climbing Cleveland Center
12:20PM 39.9678 -80.0894 191° South 280 322 20,600 2,580 Climbing Cleveland Center
12:21PM 39.8046 -80.0874 194° South  Level FlightAware Approximate
12:21PM 39.8889 -80.1089 191° South 285 328 22,900  Level Cleveland Center
12:22PM 39.8044 -80.1300 191° South 302 348 25,000 1,920 Climbing Cleveland Center
12:23PM 39.7189 -80.1522 191° South 307 353 26,900 1,740 Climbing Cleveland Center
12:24PM 39.6300 -80.1736 190° South 319 367 28,600 1,740 Climbing Cleveland Center
12:25PM 39.5214 -80.2017 191° South 329 379 30,500 1,680 Climbing Cleveland Center
12:26PM 39.4475 -80.2225 192° South 332 382 32,100 1,740 Climbing Washington Center
12:27PM 39.3697 -80.2389 189° South 332 382 34,000 1,560 Climbing Washington Center
12:28PM 39.2772 -80.2625 191° South 327 376 35,300 1,200 Climbing Washington Center
12:29PM 39.1908 -80.2864 192° South 322 371 36,500 1,080 Climbing Washington Center
12:30PM 39.1042 -80.3131 193° South 316 364 37,500 720 Climbing Washington Center
12:31PM 39.0178 -80.3394 193° South 321 369 38,000 240 Climbing Washington Center
12:32PM 38.9250 -80.3628 191° South 321 369 38,000  Level Washington Center
12:33PM 38.8322 -80.3914 194° South 339 390 38,000 360 Level Washington Center
12:34PM 38.7244 -80.4269 194° South 355 409 38,800 720 Climbing Washington Center
12:35PM 38.6400 -80.4481 191° South 360 414 39,500 540 Climbing Washington Center
12:36PM 38.5497 -80.4633 188° South 347 399 40,000 240 Climbing Washington Center
12:37PM 38.4553 -80.4783 187° South 347 399 40,000  Level Washington Center
12:38PM 38.4078 -80.4806 182° South 336 387 40,000  Level Indianapolis Center
12:38PM 38.3628 -80.4961 195° South 347 399 40,000  Level Washington Center
12:39PM 38.2578 -80.5156 188° South 347 399 40,000  Level Washington Center
12:40PM 38.1614 -80.5303 187° South 353 406 40,000  Level Washington Center
12:41PM 38.0625 -80.5475 188° South 353 406 40,000  Level Washington Center
12:42PM 37.9658 -80.5650 188° South 353 406 40,000  Level Washington Center
12:43PM 37.8775 -80.5800 188° South 353 406 40,000  Level Washington Center
12:44PM 37.7808 -80.5972 188° South 353 406 40,000  Level Washington Center
12:46PM 37.6225 -80.6228 187° South 355 409 40,000  Level Atlanta Center
12:47PM 37.5208 -80.6428 189° South 360 414 40,000  Level Atlanta Center
12:48PM 37.4108 -80.6581 186° South 367 422 40,000  Level Atlanta Center
12:49PM 37.3133 -80.6753 188° South 367 422 40,000  Level Atlanta Center
12:50PM 37.2139 -80.6953 189° South 367 422 40,000  Level Atlanta Center
12:51PM 37.1142 -80.7072 185° South 367 422 40,000  Level Atlanta Center
12:52PM 37.0272 -80.7344 194° South 367 422 40,000  Level Atlanta Center
12:53PM 36.9322 -80.7617 193° South 367 422 40,000  Level Atlanta Center
12:54PM 36.8369 -80.7889 193° South 362 417 40,000  Level Atlanta Center
12:55PM 36.7356 -80.8164 192° South 355 409 40,000  Level Atlanta Center
12:56PM 36.6403 -80.8461 194° South 348 400 40,000  Level Atlanta Center
12:57PM 36.5453 -80.8758 194° South 348 400 40,000  Level Atlanta Center
12:58PM 36.4500 -80.9028 193° South 354 407 40,000  Level Atlanta Center
12:59PM 36.3569 -80.9322 194° South 354 407 40,000  Level Atlanta Center
01:00PM 36.2594 -80.9617 194° South 354 407 40,000  Level Atlanta Center
01:01PM 36.1642 -80.9886 193° South 354 407 40,000  Level Atlanta Center
01:02PM 36.0692 -81.0178 194° South 354 407 40,000  Level Atlanta Center
01:03PM 35.9739 -81.0444 193° South 354 407 40,000  Level Atlanta Center
01:04PM 35.8764 -81.0736 194° South 354 407 40,000  Level Atlanta Center
01:05PM 35.7792 -81.1028 194° South 359 413 40,000  Level Atlanta Center
01:06PM 35.7006 -81.1286 195° South 359 413 40,000  Level Atlanta Center
01:07PM 35.5803 -81.1583 191° South 364 419 40,000  Level Atlanta Center
01:08PM 35.4850 -81.1925 196° South 364 419 40,000  Level Atlanta Center
01:09PM 35.3958 -81.2158 192° South 364 419 40,000  Level Atlanta Center
01:10PM 35.3006 -81.2444 194° South 364 419 40,000  Level Atlanta Center
01:11PM 35.2053 -81.2731 194° South 359 413 40,000  Level Atlanta Center
01:12PM 35.1097 -81.3017 194° South 359 413 40,000  Level Atlanta Center
01:13PM 35.0144 -81.3278 193° South 359 413 40,000  Level Atlanta Center
01:14PM 34.9231 -81.3536 193° South 354 407 40,000  Level Atlanta Center
01:16PM 34.7228 -81.4097 193° South 335 386 40,000  Level Jacksonville Center
01:17PM 34.6292 -81.4317 191° South 335 386 40,000  Level Jacksonville Center
01:18PM 34.5292 -81.4511 189° South 340 391 40,000  Level Jacksonville Center
01:19PM 34.4356 -81.4653 187° South 334 384 40,000  Level Jacksonville Center
01:20PM 34.3419 -81.4842 189° South 339 390 40,000  Level Jacksonville Center
01:21PM 34.2461 -81.5008 188° South 345 397 40,000  Level Jacksonville Center
01:22PM 34.1503 -81.5175 188° South 350 403 40,000  Level Jacksonville Center
01:23PM 34.0544 -81.5389 190° South 350 403 40,000  Level Jacksonville Center
01:24PM 33.9567 -81.5556 188° South 350 403 40,000  Level Jacksonville Center
01:25PM 33.8586 -81.5747 189° South 350 403 40,000  Level Jacksonville Center
01:26PM 33.7608 -81.5936 189° South 355 409 40,000  Level Jacksonville Center
01:27PM 33.6672 -81.6122 189° South 355 409 40,000  Level Jacksonville Center
01:28PM 33.5672 -81.6289 188° South 355 409 40,000  Level Jacksonville Center
01:29PM 33.4714 -81.6475 189° South 355 409 40,000  Level Jacksonville Center
01:30PM 33.3756 -81.6639 188° South 355 409 40,000  Level Jacksonville Center
01:31PM 33.2797 -81.6825 189° South 355 409 40,000  Level Jacksonville Center
01:32PM 33.1817 -81.6989 188° South 355 409 40,000  Level Jacksonville Center
01:33PM 33.0817 -81.7200 190° South 355 409 40,000  Level Jacksonville Center
01:34PM 32.9839 -81.7361 188° South 355 409 40,000  Level Jacksonville Center
01:35PM 32.8858 -81.7547 189° South 355 409 40,000  Level Jacksonville Center
01:36PM 32.7900 -81.7708 188° South 355 409 40,000  Level Jacksonville Center
01:37PM 32.7086 -81.7864 189° South 360 414 40,000  Level Jacksonville Center
01:38PM 32.5878 -81.8103 189° South 370 426 40,000  Level Jacksonville Center
01:39PM 32.4878 -81.8311 190° South 370 426 40,000  Level Jacksonville Center
01:40PM 32.3961 -81.8469 188° South 370 426 40,000  Level Jacksonville Center
01:41PM 32.2919 -81.8750 193° South 363 418 40,000  Level Jacksonville Center
01:42PM 32.2086 -81.9081 199° South 353 406 40,000  Level Jacksonville Center
01:43PM 32.1086 -81.9458 198° South 353 406 40,000  Level Jacksonville Center
01:44PM 32.0192 -81.9811 198° South 340 391 40,000  Level Jacksonville Center
01:45PM 31.9339 -82.0114 197° South 345 397 40,000  Level Jacksonville Center
01:46PM 31.8275 -82.0294 188° South 356 410 40,000  Level Jacksonville Center
01:47PM 31.7272 -82.0450 188° South 361 415 40,000  Level Jacksonville Center
01:48PM 31.6397 -82.0581 187° South 361 415 40,000  Level Jacksonville Center
01:49PM 31.5375 -82.0808 191° South 368 423 40,000  Level Jacksonville Center
01:50PM 31.4394 -82.0914 185° South 368 423 40,000 -180 Level Jacksonville Center
01:51PM 31.3414 -82.1044 186° South 368 423 39,700 -900 Descending Jacksonville Center
01:52PM 31.2414 -82.1197 187° South 368 423 38,200 -900 Descending Jacksonville Center
01:53PM 31.1453 -82.1328 187° South 368 423 38,000 -120 Descending Jacksonville Center
01:54PM 31.0431 -82.1506 188° South 368 423 38,000  Level Jacksonville Center
01:55PM 30.9389 -82.1636 186° South 368 423 38,000  Level Jacksonville Center
01:56PM 30.8367 -82.1789 187° South 368 423 38,000  Level Jacksonville Center
01:57PM 30.7197 -82.1967 187° South 378 435 38,000  Level Jacksonville Center
01:58PM 30.6133 -82.2119 187° South 383 441 38,000  Level Jacksonville Center
01:59PM 30.5111 -82.2222 185° South 383 441 38,000  Level Jacksonville Center
02:00PM 30.4047 -82.2375 187° South 383 441 38,000 -240 Level Jacksonville Center
02:01PM 30.3025 -82.2525 187° South 383 441 37,600 -1,200 Descending Jacksonville Center
02:02PM 30.2003 -82.2678 187° South 383 441 35,700 -1,680 Descending Jacksonville Center
02:03PM 30.1022 -82.2828 188° South 377 434 34,300 -1,380 Descending Jacksonville Center
02:04PM 30.0042 -82.3000 189° South 365 420 33,000 -1,440 Descending Jacksonville Center
02:05PM 29.9039 -82.3153 188° South 365 420 31,500 -1,500 Descending Jacksonville Center
02:06PM 29.7975 -82.3300 187° South 371 427 30,100 -1,440 Descending Jacksonville Center
02:07PM 29.6994 -82.3403 185° South 383 441 28,700 -1,500 Descending Jacksonville Center
02:08PM 29.5889 -82.3575 188° South 396 456 27,100 -1,740 Descending Jacksonville Center
02:09PM 29.4742 -82.3486 176° South 402 463 25,300 -1,860 Descending Jacksonville Center
02:10PM 29.3633 -82.3303 172° South 407 468 23,400 -1,860 Descending Jacksonville Center
02:11PM 29.2528 -82.3189 175° South 401 461 21,600 -1,800 Descending Jacksonville Center
02:12PM 29.1483 -82.3078 175° South 401 461 19,800 -1,860 Descending Jacksonville Center
02:13PM 29.0417 -82.2964 175° South 390 449 17,900 -1,860 Descending Jacksonville Center
02:14PM 28.9289 -82.2828 174° South 385 443 16,100 -1,800 Descending Jacksonville Center
02:15PM 28.8331 -82.2692 173° South 378 435 14,400 -1,440 Descending Jacksonville Center
02:18PM 28.6000 -82.2500 176° South 335 386 11,200 -1,020 Descending Tampa TRACON
02:19PM 28.5000 -82.2500 180° South 335 386 11,000 -120 Descending Tampa TRACON
02:20PM 28.4167 -82.2500 180° South 329 379 11,000 -60 Level Tampa TRACON
02:21PM 28.3333 -82.2833 199° South 306 352 10,900 -780 Descending Tampa TRACON
02:22PM 28.2833 -82.3333 221° Southwest 250 288 9,500 -1,500 Descending Tampa TRACON
02:23PM 28.2167 -82.3833 213° Southwest 247 284 7,900 -1,380 Descending Tampa TRACON
02:24PM 28.1500 -82.4167 204° Southwest 278 320 6,800 -1,320 Descending Tampa TRACON
02:25PM 28.0833 -82.4167 180° South 278 320 5,300 -900 Descending Tampa TRACON
02:26PM 28.0000 -82.4167 180° South 262 302 5,000 -360 Descending Tampa TRACON
02:27PM 27.9333 -82.4167 180° South 256 295 4,600 -1,020 Descending Tampa TRACON
02:28PM 27.8667 -82.4333 192° South 245 282 3,000 -1,020 Descending Tampa TRACON
02:29PM 27.8000 -82.4500 192° South 252 290 2,600 -240 Descending Tampa TRACON
02:30PM 27.7833 -82.5167 254° West 210 242 2,600  Level Tampa TRACON
02:31PM 27.8167 -82.5667 307° West 184 212 2,600 -300 Level Tampa TRACON
02:32PM 27.8500 -82.5500 24° Northeast 175 201 2,000 -720 Descending Tampa TRACON
02:33PM 27.9000 -82.5500 360° North 155 178 1,200 -720 Descending Tampa TRACON
02:34PM 27.9333 -82.5500 360° North 113 130 600 -600 Descending Tampa TRACON